Time;durP1;ratioP1;P1;durP2;ratioP2;P2;SDS_P1;SDS_P2;PMS_P1;PMS_P2;Temp;Humidity;BMP_temperature;BMP_pressure;BME280_temperature;BME280_humidity;BME280_pressure;Samples;Min_cycle;Max_cycle;Signal;HPM_P1;HPM_P2
2023/03/18 00:02:37;;;;;;;4.47;3.30;;;;;;;;;;5005746;28;20630;-87
2023/03/18 00:05:42;;;;;;;9.00;3.73;;;;;;;;;;4982563;28;20673;-87
2023/03/18 00:08:47;;;;;;;6.80;3.90;;;;;;;;;;4982407;28;20177;-87
2023/03/18 00:11:52;;;;;;;5.53;3.73;;;;;;;;;;4993747;28;20181;-87
2023/03/18 00:14:58;;;;;;;9.47;5.40;;;;;;;;;;4993564;28;20229;-87
2023/03/18 00:18:03;;;;;;;7.27;4.67;;;;;;;;;;4995723;28;20182;-87
2023/03/18 00:21:08;;;;;;;3.83;3.20;;;;;;;;;;4994994;28;20186;-87
2023/03/18 00:24:14;;;;;;;5.27;4.17;;;;;;;;;;4994054;28;20217;-87
2023/03/18 00:27:18;;;;;;;6.63;4.30;;;;;;;;;;4984896;28;20178;-87
2023/03/18 00:30:28;;;;;;;7.27;4.17;;;;;;;;;;4994262;28;20175;-87
2023/03/18 00:33:38;;;;;;;7.30;5.20;;;;;;;;;;4994943;28;20182;-87
2023/03/18 00:36:44;;;;;;;10.47;5.63;;;;;;;;;;4993667;28;20205;-87
2023/03/18 00:39:49;;;;;;;10.33;5.00;;;;;;;;;;4984493;28;20181;-87
2023/03/18 00:43:06;;;;;;;7.37;4.40;;;;;;;;;;4995551;28;20181;-87
2023/03/18 00:46:18;;;;;;;7.47;4.37;;;;;;;;;;4993031;28;20178;-87
2023/03/18 00:49:22;;;;;;;5.37;4.27;;;;;;;;;;4982619;28;20581;-87
2023/03/18 00:52:27;;;;;;;10.97;6.17;;;;;;;;;;4982016;28;20182;-87
2023/03/18 00:55:32;;;;;;;9.80;4.97;;;;;;;;;;4993162;28;20217;-87
2023/03/18 00:58:37;;;;;;;7.87;5.27;;;;;;;;;;4993173;28;20173;-87
2023/03/18 01:01:43;;;;;;;8.30;5.17;;;;;;;;;;4994035;28;20193;-87
2023/03/18 01:04:47;;;;;;;9.93;5.93;;;;;;;;;;4993091;28;20624;-87
2023/03/18 01:07:52;;;;;;;8.83;5.70;;;;;;;;;;5015573;28;20174;-87
2023/03/18 01:10:57;;;;;;;9.33;6.20;;;;;;;;;;4981965;28;20181;-87
2023/03/18 01:14:02;;;;;;;10.83;6.67;;;;;;;;;;4992324;28;20217;-87
2023/03/18 01:17:08;;;;;;;11.30;6.20;;;;;;;;;;4981417;28;20209;-87
2023/03/18 01:20:18;;;;;;;12.43;7.33;;;;;;;;;;5003795;28;20193;-87
2023/03/18 01:23:29;;;;;;;11.17;7.27;;;;;;;;;;4992987;28;20181;-87
2023/03/18 01:26:35;;;;;;;14.87;8.10;;;;;;;;;;4992338;28;20515;-87
2023/03/18 01:29:40;;;;;;;12.37;7.60;;;;;;;;;;4992623;28;20182;-87
2023/03/18 01:32:56;;;;;;;10.57;6.63;;;;;;;;;;4981507;28;20181;-87
2023/03/18 01:36:02;;;;;;;11.50;6.10;;;;;;;;;;5003397;28;20178;-87
2023/03/18 01:39:09;;;;;;;11.37;6.93;;;;;;;;;;4981300;28;20182;-87
2023/03/18 01:42:16;;;;;;;7.27;4.40;;;;;;;;;;4981164;28;20182;-87
2023/03/18 01:45:27;;;;;;;6.03;4.20;;;;;;;;;;4980790;28;20686;-87
2023/03/18 01:48:38;;;;;;;9.47;4.50;;;;;;;;;;4981057;28;20180;-87
2023/03/18 01:51:50;;;;;;;5.60;4.10;;;;;;;;;;4991845;28;20190;-88
2023/03/18 01:54:59;;;;;;;7.53;4.77;;;;;;;;;;4980926;28;20225;-87
2023/03/18 01:58:10;;;;;;;6.10;4.30;;;;;;;;;;4980544;28;20202;-87
2023/03/18 02:01:48;;;;;;;8.10;4.70;;;;;;;;;;4980700;28;20185;-87
2023/03/18 02:05:00;;;;;;;5.70;4.20;;;;;;;;;;5002637;28;20221;-87
2023/03/18 02:08:05;;;;;;;6.53;4.80;;;;;;;;;;4991344;28;20179;-87
2023/03/18 02:11:15;;;;;;;6.43;4.57;;;;;;;;;;4991377;28;20181;-87
2023/03/18 02:14:24;;;;;;;8.50;5.10;;;;;;;;;;4980288;28;20601;-87
2023/03/18 02:17:35;;;;;;;7.33;5.10;;;;;;;;;;4980235;28;20213;-88
2023/03/18 02:20:54;;;;;;;13.53;5.37;;;;;;;;;;4980521;28;20190;-87
2023/03/18 02:24:33;;;;;;;8.03;4.90;;;;;;;;;;5013743;28;20220;-87
2023/03/18 02:27:55;;;;;;;10.37;5.83;;;;;;;;;;5012614;28;20173;-87
2023/03/18 02:31:08;;;;;;;8.93;5.97;;;;;;;;;;4979915;28;20665;-87
2023/03/18 02:34:14;;;;;;;10.83;5.87;;;;;;;;;;4980149;28;20213;-87
2023/03/18 02:37:19;;;;;;;9.33;5.90;;;;;;;;;;4991282;28;20209;-87
2023/03/18 02:40:25;;;;;;;8.37;6.07;;;;;;;;;;4991256;28;20631;-87
2023/03/18 02:43:31;;;;;;;9.40;5.93;;;;;;;;;;4991077;28;20178;-87
2023/03/18 02:47:05;;;;;;;7.83;5.33;;;;;;;;;;4991218;28;20903;-87
2023/03/18 02:50:09;;;;;;;7.37;4.90;;;;;;;;;;4990909;28;20185;-87
2023/03/18 02:53:19;;;;;;;6.60;4.87;;;;;;;;;;4990595;28;20186;-87
2023/03/18 02:56:23;;;;;;;10.13;5.73;;;;;;;;;;5001745;28;20197;-87
2023/03/18 02:59:31;;;;;;;8.07;5.57;;;;;;;;;;4990982;28;20194;-87
2023/03/18 03:02:35;;;;;;;8.50;5.27;;;;;;;;;;4990603;28;21108;-87
2023/03/18 03:05:39;;;;;;;10.93;5.63;;;;;;;;;;4990232;28;20627;-87
2023/03/18 03:08:44;;;;;;;10.03;6.00;;;;;;;;;;4990894;28;21073;-87
2023/03/18 03:11:49;;;;;;;10.57;6.37;;;;;;;;;;4979390;28;20561;-87
2023/03/18 03:14:58;;;;;;;10.00;6.03;;;;;;;;;;4979999;28;20631;-87
2023/03/18 03:18:06;;;;;;;12.00;7.70;;;;;;;;;;5002063;28;20205;-87
2023/03/18 03:21:12;;;;;;;10.40;6.50;;;;;;;;;;5002270;28;20189;-87
2023/03/18 03:24:17;;;;;;;8.03;6.40;;;;;;;;;;4979494;28;20220;-87
2023/03/18 03:27:21;;;;;;;7.07;5.80;;;;;;;;;;4979621;28;20174;-87
2023/03/18 03:30:25;;;;;;;11.27;6.33;;;;;;;;;;4990584;28;20874;-87
2023/03/18 03:33:30;;;;;;;9.87;6.50;;;;;;;;;;5001745;28;20185;-87
2023/03/18 03:37:04;;;;;;;10.80;6.73;;;;;;;;;;4993784;28;20603;-87
2023/03/18 03:40:11;;;;;;;9.50;6.80;;;;;;;;;;4979175;28;20190;-87
2023/03/18 03:43:16;;;;;;;12.97;7.10;;;;;;;;;;4979691;28;20177;-87
2023/03/18 03:46:20;;;;;;;8.97;6.37;;;;;;;;;;4990422;28;20193;-87
2023/03/18 03:49:24;;;;;;;15.53;7.17;;;;;;;;;;4990430;28;20193;-87
2023/03/18 03:52:29;;;;;;;12.97;6.43;;;;;;;;;;5001944;28;20185;-87
2023/03/18 03:55:34;;;;;;;10.70;6.60;;;;;;;;;;4979181;28;20691;-87
2023/03/18 03:59:03;;;;;;;12.10;5.83;;;;;;;;;;4979520;28;20666;-87
2023/03/18 04:02:28;;;;;;;9.33;5.70;;;;;;;;;;5001548;28;20197;-87
2023/03/18 04:05:33;;;;;;;9.13;6.10;;;;;;;;;;4991716;28;20221;-87
2023/03/18 04:08:38;;;;;;;10.20;6.47;;;;;;;;;;5005384;28;20626;-87
2023/03/18 04:11:43;;;;;;;7.93;6.00;;;;;;;;;;4982872;28;20186;-87
2023/03/18 04:14:49;;;;;;;9.17;6.00;;;;;;;;;;4993180;28;20221;-87
2023/03/18 04:17:56;;;;;;;7.87;5.63;;;;;;;;;;4983006;28;20209;-87
2023/03/18 04:21:02;;;;;;;9.93;5.57;;;;;;;;;;4993695;28;20564;-87
2023/03/18 04:24:26;;;;;;;9.80;5.33;;;;;;;;;;4993294;28;20628;-87
2023/03/18 04:27:31;;;;;;;7.93;5.57;;;;;;;;;;4993750;28;20540;-87
2023/03/18 04:30:37;;;;;;;8.97;6.00;;;;;;;;;;5004655;28;20178;-87
2023/03/18 04:33:48;;;;;;;10.33;5.93;;;;;;;;;;4994570;28;20209;-88
2023/03/18 04:36:52;;;;;;;8.87;6.20;;;;;;;;;;5004413;28;20189;-87
2023/03/18 04:39:58;;;;;;;8.97;6.13;;;;;;;;;;4982666;28;20189;-87
2023/03/18 04:43:06;;;;;;;11.97;6.73;;;;;;;;;;4982390;28;20178;-87
2023/03/18 04:46:11;;;;;;;10.13;6.70;;;;;;;;;;4992947;28;20292;-87
2023/03/18 04:49:15;;;;;;;9.73;6.80;;;;;;;;;;5004329;28;20197;-87
2023/03/18 04:52:20;;;;;;;11.90;7.07;;;;;;;;;;4982274;28;20181;-87
2023/03/18 04:55:25;;;;;;;10.00;6.47;;;;;;;;;;4981797;28;20217;-87
2023/03/18 04:58:30;;;;;;;11.77;6.93;;;;;;;;;;5004084;28;20209;-87
2023/03/18 05:01:49;;;;;;;9.90;6.40;;;;;;;;;;4983719;28;20515;-87
2023/03/18 05:04:56;;;;;;;10.87;6.87;;;;;;;;;;4992682;28;20214;-87
2023/03/18 05:08:01;;;;;;;9.07;6.47;;;;;;;;;;4992605;28;20174;-88
2023/03/18 05:11:05;;;;;;;10.17;6.77;;;;;;;;;;4992558;28;20566;-87
2023/03/18 05:14:14;;;;;;;9.00;6.10;;;;;;;;;;4982696;28;20201;-87
2023/03/18 05:17:23;;;;;;;10.23;6.50;;;;;;;;;;4981232;28;20201;-87
2023/03/18 05:20:34;;;;;;;11.23;6.43;;;;;;;;;;4982455;28;20190;-87
2023/03/18 05:23:40;;;;;;;10.50;6.63;;;;;;;;;;4981218;28;20185;-87
2023/03/18 05:26:46;;;;;;;8.83;6.13;;;;;;;;;;4981455;28;20545;-87
2023/03/18 05:29:52;;;;;;;9.70;5.97;;;;;;;;;;5003749;28;20174;-87
2023/03/18 05:33:03;;;;;;;9.77;6.20;;;;;;;;;;4981694;28;20548;-88
2023/03/18 05:36:28;;;;;;;9.53;6.40;;;;;;;;;;4992645;28;20182;-87
2023/03/18 05:39:39;;;;;;;9.53;7.03;;;;;;;;;;4981800;28;20554;-87
2023/03/18 05:42:47;;;;;;;9.33;6.67;;;;;;;;;;4981509;28;20178;-87
2023/03/18 05:45:52;;;;;;;10.63;6.37;;;;;;;;;;4981086;28;20217;-87
2023/03/18 05:49:01;;;;;;;9.17;5.90;;;;;;;;;;4981614;28;20189;-87
2023/03/18 05:52:11;;;;;;;9.07;6.63;;;;;;;;;;4992125;28;20197;-87
2023/03/18 05:55:22;;;;;;;10.37;6.00;;;;;;;;;;4991626;28;20221;-87
2023/03/18 05:58:30;;;;;;;7.57;6.07;;;;;;;;;;4981012;28;20217;-87
2023/03/18 06:01:47;;;;;;;10.70;6.60;;;;;;;;;;4993624;28;20185;-87
2023/03/18 06:04:52;;;;;;;12.23;8.07;;;;;;;;;;4980556;28;20216;-87
2023/03/18 06:07:56;;;;;;;23.30;14.80;;;;;;;;;;4980448;28;20177;-87
2023/03/18 06:11:00;;;;;;;10.77;7.20;;;;;;;;;;4980540;28;20181;-87
2023/03/18 06:14:07;;;;;;;9.47;6.57;;;;;;;;;;4980399;28;20216;-87
2023/03/18 06:17:12;;;;;;;14.57;8.13;;;;;;;;;;4980306;28;20623;-87
2023/03/18 06:20:18;;;;;;;13.83;8.67;;;;;;;;;;4980692;28;20170;-88
2023/03/18 06:23:22;;;;;;;13.83;8.03;;;;;;;;;;4991316;28;20519;-87
2023/03/18 06:26:27;;;;;;;15.00;7.63;;;;;;;;;;5002508;28;20185;-87
2023/03/18 06:29:32;;;;;;;12.83;7.80;;;;;;;;;;4990738;28;20547;-88
2023/03/18 06:32:44;;;;;;;12.20;7.80;;;;;;;;;;4990953;28;20635;-87
2023/03/18 06:35:50;;;;;;;9.20;6.40;;;;;;;;;;4991070;28;20225;-87
2023/03/18 06:38:54;;;;;;;8.60;6.87;;;;;;;;;;4990896;28;20209;-87
2023/03/18 06:42:01;;;;;;;11.13;8.10;;;;;;;;;;4994227;28;20201;-87
2023/03/18 06:45:12;;;;;;;9.60;7.93;;;;;;;;;;4980320;28;20221;-86
2023/03/18 06:48:28;;;;;;;14.97;9.47;;;;;;;;;;4992590;28;20190;-87
2023/03/18 06:51:35;;;;;;;18.23;9.30;;;;;;;;;;4991107;28;20182;-87
2023/03/18 06:54:40;;;;;;;15.90;10.37;;;;;;;;;;4979569;28;20229;-87
2023/03/18 06:57:46;;;;;;;13.13;9.07;;;;;;;;;;4979492;28;20212;-87
2023/03/18 07:00:54;;;;;;;11.60;8.93;;;;;;;;;;4980034;28;20642;-87
2023/03/18 07:04:05;;;;;;;13.60;11.27;;;;;;;;;;4980380;28;20563;-87
2023/03/18 07:07:10;;;;;;;16.90;11.40;;;;;;;;;;4979628;28;20182;-87
2023/03/18 07:10:24;;;;;;;21.23;14.03;;;;;;;;;;4979449;28;20539;-86
2023/03/18 07:13:33;;;;;;;25.87;20.07;;;;;;;;;;4979959;28;20182;-86
2023/03/18 07:16:38;;;;;;;22.13;16.17;;;;;;;;;;4979377;28;20173;-87
2023/03/18 07:19:42;;;;;;;23.13;16.53;;;;;;;;;;4990460;28;20201;-87
2023/03/18 07:22:48;;;;;;;26.57;19.40;;;;;;;;;;4990429;28;20523;-87
2023/03/18 07:25:52;;;;;;;25.80;19.67;;;;;;;;;;4979004;28;20217;-87
2023/03/18 07:28:57;;;;;;;29.97;20.93;;;;;;;;;;5001634;28;20178;-87
2023/03/18 07:32:01;;;;;;;32.30;15.10;;;;;;;;;;4990226;28;20182;-87
2023/03/18 07:35:06;;;;;;;24.43;14.17;;;;;;;;;;5001498;28;20686;-87
2023/03/18 07:38:11;;;;;;;17.63;12.47;;;;;;;;;;4990698;28;20205;-87
2023/03/18 07:41:15;;;;;;;16.80;12.70;;;;;;;;;;4983136;28;20186;-87
2023/03/18 07:44:20;;;;;;;19.73;12.43;;;;;;;;;;4982962;28;20217;-87
2023/03/18 07:47:23;;;;;;;14.70;11.07;;;;;;;;;;4993824;28;20544;-87
2023/03/18 07:50:28;;;;;;;15.30;10.87;;;;;;;;;;4994109;28;20182;-87
2023/03/18 07:53:32;;;;;;;22.00;9.23;;;;;;;;;;4993991;28;20182;-87
2023/03/18 07:56:36;;;;;;;17.73;8.77;;;;;;;;;;4982533;28;20185;-86
2023/03/18 07:59:41;;;;;;;12.73;8.10;;;;;;;;;;4983025;28;20209;-88
2023/03/18 08:02:46;;;;;;;15.70;9.00;;;;;;;;;;4993953;28;20201;-87
2023/03/18 08:05:50;;;;;;;16.33;10.53;;;;;;;;;;4993485;28;20217;-87
2023/03/18 08:08:54;;;;;;;23.27;15.27;;;;;;;;;;4993771;28;20173;-87
2023/03/18 08:11:59;;;;;;;16.93;10.97;;;;;;;;;;4993438;28;20177;-87
2023/03/18 08:15:03;;;;;;;15.77;10.53;;;;;;;;;;4993193;28;20229;-87
2023/03/18 08:18:08;;;;;;;17.13;9.93;;;;;;;;;;4983058;28;20182;-82
2023/03/18 08:21:13;;;;;;;13.37;9.70;;;;;;;;;;5006993;28;20631;-86
2023/03/18 08:24:17;;;;;;;20.40;10.23;;;;;;;;;;4982804;28;20213;-87
2023/03/18 08:27:21;;;;;;;14.27;9.00;;;;;;;;;;5004303;28;20537;-87
2023/03/18 08:30:27;;;;;;;15.50;10.13;;;;;;;;;;4993344;28;20174;-87
2023/03/18 08:33:31;;;;;;;12.90;9.40;;;;;;;;;;4982177;28;20188;-87
2023/03/18 08:36:36;;;;;;;12.33;8.70;;;;;;;;;;4993225;28;20181;-88
2023/03/18 08:39:42;;;;;;;11.33;8.03;;;;;;;;;;4992898;28;20555;-87
2023/03/18 08:42:47;;;;;;;13.23;9.47;;;;;;;;;;5004345;28;20206;-87
2023/03/18 08:45:52;;;;;;;12.87;8.87;;;;;;;;;;4993246;28;20221;-87
2023/03/18 08:48:58;;;;;;;12.03;6.93;;;;;;;;;;4981951;28;20181;-87
2023/03/18 08:52:03;;;;;;;12.20;7.13;;;;;;;;;;5003561;28;20650;-87
2023/03/18 08:55:08;;;;;;;13.03;7.20;;;;;;;;;;4992703;28;20220;-88
2023/03/18 08:58:12;;;;;;;9.43;6.30;;;;;;;;;;5003966;28;20193;-88
2023/03/18 09:01:20;;;;;;;7.40;5.73;;;;;;;;;;4992642;28;20650;-88
2023/03/18 09:04:24;;;;;;;10.33;5.97;;;;;;;;;;4981504;28;20547;-87
2023/03/18 09:07:29;;;;;;;7.17;5.37;;;;;;;;;;4992864;28;20177;-87
2023/03/18 09:10:34;;;;;;;6.97;5.27;;;;;;;;;;4992294;28;20177;-87
2023/03/18 09:13:38;;;;;;;7.73;5.63;;;;;;;;;;4992556;28;20524;-87
2023/03/18 09:16:42;;;;;;;8.17;4.83;;;;;;;;;;4992350;28;20630;-87
2023/03/18 09:19:46;;;;;;;7.70;5.57;;;;;;;;;;4981262;28;20205;-88
2023/03/18 09:22:51;;;;;;;7.23;5.10;;;;;;;;;;4981283;28;20201;-88
2023/03/18 09:25:56;;;;;;;8.07;5.47;;;;;;;;;;4980659;28;20213;-87
2023/03/18 09:29:00;;;;;;;9.03;5.00;;;;;;;;;;4992593;28;20170;-88
2023/03/18 09:32:04;;;;;;;12.33;5.70;;;;;;;;;;5003096;28;20182;-87
2023/03/18 09:35:10;;;;;;;7.43;4.30;;;;;;;;;;4991916;28;20217;-87
2023/03/18 09:38:15;;;;;;;17.73;4.43;;;;;;;;;;4991909;28;20177;-87
2023/03/18 09:41:44;;;;;;;6.77;4.97;;;;;;;;;;4980536;28;20177;-87
2023/03/18 09:44:54;;;;;;;7.93;4.97;;;;;;;;;;4991693;28;20709;-88
2023/03/18 09:48:27;;;;;;;11.63;4.60;;;;;;;;;;4980841;28;20174;-88
2023/03/18 09:51:37;;;;;;;6.43;3.80;;;;;;;;;;4992057;28;20503;-88
2023/03/18 09:55:03;;;;;;;14.03;4.30;;;;;;;;;;4994873;28;20221;-86
2023/03/18 09:58:18;;;;;;;5.63;3.93;;;;;;;;;;4981411;28;20186;-86
2023/03/18 10:01:25;;;;;;;5.00;3.93;;;;;;;;;;4991971;28;20166;-87
2023/03/18 10:04:41;;;;;;;7.00;4.03;;;;;;;;;;4980649;28;20563;-86
2023/03/18 10:07:51;;;;;;;6.80;4.23;;;;;;;;;;4980843;28;20194;-86
2023/03/18 10:11:29;;;;;;;5.83;3.97;;;;;;;;;;5004938;28;20202;-88
2023/03/18 10:15:38;;;;;;;6.87;4.20;;;;;;;;;;5014623;28;20233;-87
2023/03/18 10:18:43;;;;;;;6.47;4.07;;;;;;;;;;5002395;28;20178;-88
2023/03/18 10:22:09;;;;;;;12.40;3.80;;;;;;;;;;4980910;28;20178;-87
2023/03/18 10:25:27;;;;;;;5.47;3.93;;;;;;;;;;4991138;28;20221;-87
2023/03/18 10:28:57;;;;;;;8.17;3.60;;;;;;;;;;4980228;28;20630;-88
2023/03/18 10:32:27;;;;;;;7.60;3.33;;;;;;;;;;5002233;28;20185;-87
2023/03/18 10:35:54;;;;;;;6.37;3.80;;;;;;;;;;5004817;28;20220;-88
2023/03/18 10:39:01;;;;;;;5.70;3.57;;;;;;;;;;5002105;28;20194;-88
2023/03/18 10:42:23;;;;;;;7.70;3.73;;;;;;;;;;4979915;28;20183;-87
2023/03/18 10:45:32;;;;;;;4.47;3.07;;;;;;;;;;4981123;28;20677;-87
2023/03/18 10:48:50;;;;;;;4.70;2.20;;;;;;;;;;4981197;28;20191;-88
2023/03/18 10:52:06;;;;;;;4.63;2.80;;;;;;;;;;4980869;28;20185;-87
2023/03/18 10:55:17;;;;;;;6.13;2.63;;;;;;;;;;4980114;28;20213;-87
2023/03/18 10:58:21;;;;;;;4.77;2.50;;;;;;;;;;4980790;28;20217;-88
2023/03/18 11:01:28;;;;;;;5.10;2.60;;;;;;;;;;4981813;28;20196;-87
2023/03/18 11:04:51;;;;;;;17.70;3.03;;;;;;;;;;4991591;28;20559;-85
2023/03/18 11:08:06;;;;;;;5.70;2.40;;;;;;;;;;4992985;28;20185;-87
2023/03/18 11:11:34;;;;;;;4.13;2.10;;;;;;;;;;4980273;28;20308;-87
2023/03/18 11:14:39;;;;;;;4.50;2.50;;;;;;;;;;5008499;28;20232;-88
2023/03/18 11:17:49;;;;;;;4.30;2.30;;;;;;;;;;4995810;28;20188;-88
2023/03/18 11:20:59;;;;;;;2.63;2.10;;;;;;;;;;4994442;28;20175;-87
2023/03/18 11:24:09;;;;;;;3.63;1.90;;;;;;;;;;4994421;28;20224;-88
2023/03/18 11:27:13;;;;;;;3.23;1.87;;;;;;;;;;4994995;28;20527;-89
2023/03/18 11:30:23;;;;;;;5.47;2.03;;;;;;;;;;4983526;28;20202;-89
2023/03/18 11:33:36;;;;;;;3.10;1.60;;;;;;;;;;4983266;28;20186;-89
2023/03/18 11:36:40;;;;;;;3.57;1.50;;;;;;;;;;4983957;28;20189;-89
2023/03/18 11:39:44;;;;;;;5.03;2.17;;;;;;;;;;4995997;28;20174;-84
2023/03/18 11:42:54;;;;;;;3.10;2.00;;;;;;;;;;4994832;28;20663;-85
2023/03/18 11:46:08;;;;;;;5.07;1.73;;;;;;;;;;4995284;28;20225;-85
2023/03/18 11:49:16;;;;;;;4.57;1.90;;;;;;;;;;4984285;28;20198;-84
2023/03/18 11:52:29;;;;;;;4.37;1.83;;;;;;;;;;4994786;28;20631;-85
2023/03/18 11:55:42;;;;;;;3.27;1.90;;;;;;;;;;4994109;28;20215;-86
2023/03/18 11:58:58;;;;;;;4.07;2.03;;;;;;;;;;5006187;28;20505;-85
2023/03/18 12:02:24;;;;;;;2.63;1.50;;;;;;;;;;4994958;28;20179;-86
2023/03/18 12:05:50;;;;;;;5.40;1.63;;;;;;;;;;4982573;28;20218;-84
2023/03/18 12:09:20;;;;;;;5.37;1.93;;;;;;;;;;5006413;28;20186;-85
2023/03/18 12:12:52;;;;;;;5.43;2.17;;;;;;;;;;5006897;28;20183;-85
2023/03/18 12:16:07;;;;;;;35.33;2.93;;;;;;;;;;4982923;28;20225;-85
2023/03/18 12:19:35;;;;;;;8.17;2.20;;;;;;;;;;5006142;28;20183;-84
2023/03/18 12:23:03;;;;;;;6.27;1.70;;;;;;;;;;4983706;28;20189;-85
2023/03/18 12:26:16;;;;;;;6.73;2.07;;;;;;;;;;4982318;28;20178;-85
2023/03/18 12:29:42;;;;;;;3.27;1.73;;;;;;;;;;5005565;28;20622;-85
2023/03/18 12:33:17;;;;;;;4.70;1.97;;;;;;;;;;4994067;28;20189;-85
2023/03/18 12:37:11;;;;;;;3.80;1.83;;;;;;;;;;4994349;28;20186;-85
2023/03/18 12:40:24;;;;;;;3.17;1.80;;;;;;;;;;4935783;28;20190;-85
2023/03/18 12:43:38;;;;;;;2.75;1.63;;;;;;;;;;4994437;28;20528;-85
2023/03/18 12:47:14;;;;;;;2.83;1.67;;;;;;;;;;4993554;28;20182;-85
2023/03/18 12:50:20;;;;;;;4.22;2.10;;;;;;;;;;5005662;28;20204;-85
2023/03/18 12:53:33;;;;;;;6.03;1.77;;;;;;;;;;5004813;28;20188;-84
2023/03/18 12:56:44;;;;;;;8.40;2.30;;;;;;;;;;5004690;28;20528;-84
2023/03/18 12:59:55;;;;;;;5.80;2.00;;;;;;;;;;5005025;28;20179;-84
2023/03/18 13:03:16;;;;;;;5.38;1.85;;;;;;;;;;4993518;28;20191;-84
2023/03/18 13:06:42;;;;;;;6.03;2.40;;;;;;;;;;4982219;28;20187;-84
2023/03/18 13:09:50;;;;;;;6.00;2.25;;;;;;;;;;4983234;28;20194;-84
2023/03/18 13:13:00;;;;;;;3.55;1.63;;;;;;;;;;5007500;28;20186;-85
2023/03/18 13:16:05;;;;;;;2.75;1.80;;;;;;;;;;4996864;28;20206;-86
2023/03/18 13:19:11;;;;;;;5.00;2.15;;;;;;;;;;4996390;28;20184;-86
2023/03/18 13:22:34;;;;;;;8.30;2.00;;;;;;;;;;4995528;28;20626;-85
2023/03/18 13:26:08;;;;;;;4.13;1.95;;;;;;;;;;4984636;28;20222;-85
2023/03/18 13:29:28;;;;;;;4.35;2.00;;;;;;;;;;4987115;28;20198;-86
2023/03/18 13:32:48;;;;;;;4.28;2.10;;;;;;;;;;4992655;28;20171;-87
2023/03/18 13:36:47;;;;;;;4.13;2.28;;;;;;;;;;4981296;28;20231;-87
2023/03/18 13:40:08;;;;;;;3.95;2.20;;;;;;;;;;4935810;29;20189;-87
2023/03/18 13:43:19;;;;;;;2.88;1.83;;;;;;;;;;4954071;28;20189;-87
2023/03/18 13:46:27;;;;;;;6.07;2.20;;;;;;;;;;4992139;28;20188;-87
2023/03/18 13:49:32;;;;;;;8.18;2.40;;;;;;;;;;4980547;28;20182;-87
2023/03/18 13:52:41;;;;;;;3.53;2.10;;;;;;;;;;4991567;28;20632;-87
2023/03/18 13:55:53;;;;;;;7.82;2.15;;;;;;;;;;4980822;28;20226;-87
2023/03/18 13:59:04;;;;;;;4.22;2.03;;;;;;;;;;4980558;28;20537;-87
2023/03/18 14:02:30;;;;;;;4.03;1.83;;;;;;;;;;4980496;28;20183;-87
2023/03/18 14:05:39;;;;;;;2.78;1.77;;;;;;;;;;4980222;28;20218;-87
2023/03/18 14:08:47;;;;;;;5.33;2.27;;;;;;;;;;4980174;28;20180;-86
2023/03/18 14:11:51;;;;;;;4.10;2.17;;;;;;;;;;4980791;28;20208;-87
2023/03/18 14:15:01;;;;;;;4.30;1.92;;;;;;;;;;4991369;28;20225;-87
2023/03/18 14:18:18;;;;;;;4.17;1.97;;;;;;;;;;5002464;28;20188;-87
2023/03/18 14:21:28;;;;;;;7.53;2.20;;;;;;;;;;4991183;28;20187;-87
2023/03/18 14:24:32;;;;;;;3.37;2.00;;;;;;;;;;4991611;28;20705;-87
2023/03/18 14:27:53;;;;;;;4.40;2.23;;;;;;;;;;4991140;28;20200;-87
2023/03/18 14:31:12;;;;;;;3.47;2.10;;;;;;;;;;4980004;28;20203;-87
2023/03/18 14:34:16;;;;;;;4.60;2.10;;;;;;;;;;4991117;28;20221;-87
2023/03/18 14:37:24;;;;;;;24.47;3.50;;;;;;;;;;4979670;28;20630;-87
2023/03/18 14:40:35;;;;;;;5.33;2.00;;;;;;;;;;4991280;28;20176;-87
2023/03/18 14:43:51;;;;;;;5.30;2.10;;;;;;;;;;4990685;28;20199;-87
2023/03/18 14:47:02;;;;;;;3.50;2.10;;;;;;;;;;4990472;28;20199;-87
2023/03/18 14:50:29;;;;;;;4.03;2.13;;;;;;;;;;4990155;28;20180;-87
2023/03/18 14:53:36;;;;;;;7.77;2.30;;;;;;;;;;5002055;28;20533;-86
2023/03/18 14:56:50;;;;;;;3.73;2.20;;;;;;;;;;4990948;28;20178;-86
2023/03/18 14:59:55;;;;;;;2.63;2.13;;;;;;;;;;4979689;28;20181;-87
2023/03/18 15:03:04;;;;;;;5.33;2.57;;;;;;;;;;4979751;28;20198;-86
2023/03/18 15:06:17;;;;;;;3.17;2.30;;;;;;;;;;4979471;28;20194;-86
2023/03/18 15:09:29;;;;;;;3.47;2.50;;;;;;;;;;5001635;28;20186;-86
2023/03/18 15:12:33;;;;;;;3.73;2.53;;;;;;;;;;4979546;28;20626;-86
2023/03/18 15:15:37;;;;;;;6.47;2.30;;;;;;;;;;4990062;28;20232;-87
2023/03/18 15:18:42;;;;;;;4.70;2.40;;;;;;;;;;4979663;28;20181;-87
2023/03/18 15:21:46;;;;;;;3.20;2.00;;;;;;;;;;4990396;28;20515;-87
2023/03/18 15:24:56;;;;;;;4.97;2.10;;;;;;;;;;4990264;28;20217;-87
2023/03/18 15:28:02;;;;;;;3.80;1.90;;;;;;;;;;5001541;28;20177;-87
2023/03/18 15:31:06;;;;;;;4.37;2.30;;;;;;;;;;4990436;28;20201;-87
2023/03/18 15:34:29;;;;;;;9.70;2.33;;;;;;;;;;4979146;28;20221;-87
2023/03/18 15:37:39;;;;;;;3.87;2.20;;;;;;;;;;4990317;28;20627;-87
2023/03/18 15:40:43;;;;;;;4.47;2.20;;;;;;;;;;4978885;28;20194;-87
2023/03/18 15:43:50;;;;;;;2.50;1.87;;;;;;;;;;4978981;28;20185;-87
2023/03/18 15:47:18;;;;;;;6.93;2.33;;;;;;;;;;4990315;28;20515;-86
2023/03/18 15:50:25;;;;;;;4.10;1.87;;;;;;;;;;4979423;28;20173;-85
2023/03/18 15:53:38;;;;;;;5.20;2.70;;;;;;;;;;4979229;28;20189;-86
2023/03/18 15:56:46;;;;;;;3.07;2.40;;;;;;;;;;4978890;28;20189;-86
2023/03/18 15:59:49;;;;;;;6.07;1.90;;;;;;;;;;4990985;28;20626;-86
2023/03/18 16:02:54;;;;;;;3.50;2.00;;;;;;;;;;5005267;28;20193;-87
2023/03/18 16:05:59;;;;;;;2.40;1.87;;;;;;;;;;4982319;28;20208;-86
2023/03/18 16:09:17;;;;;;;2.50;1.73;;;;;;;;;;4982652;28;20181;-89
2023/03/18 16:12:23;;;;;;;3.70;2.07;;;;;;;;;;4982159;28;20209;-88
2023/03/18 16:15:28;;;;;;;4.03;2.00;;;;;;;;;;4982135;28;20229;-88
2023/03/18 16:18:33;;;;;;;5.00;2.17;;;;;;;;;;4993706;28;20515;-88
2023/03/18 16:21:38;;;;;;;2.23;1.40;;;;;;;;;;4982077;28;20626;-89
2023/03/18 16:24:43;;;;;;;3.97;1.80;;;;;;;;;;4982445;28;20701;-89
2023/03/18 16:27:49;;;;;;;6.03;1.43;;;;;;;;;;4982194;28;20519;-89
2023/03/18 16:30:54;;;;;;;3.33;1.50;;;;;;;;;;4981897;28;20202;-88
2023/03/18 16:33:59;;;;;;;5.93;1.70;;;;;;;;;;4982356;28;20225;-88
2023/03/18 16:37:04;;;;;;;3.00;1.80;;;;;;;;;;4993478;28;20194;-88
2023/03/18 16:40:20;;;;;;;2.57;1.40;;;;;;;;;;4993111;28;20181;-88
2023/03/18 16:43:30;;;;;;;5.07;1.83;;;;;;;;;;4993069;28;20181;-89
2023/03/18 16:46:35;;;;;;;7.83;1.80;;;;;;;;;;4981859;28;20182;-88
2023/03/18 16:49:40;;;;;;;6.97;1.50;;;;;;;;;;4992871;28;20642;-89
2023/03/18 16:52:46;;;;;;;5.20;1.70;;;;;;;;;;4992855;28;20202;-88
2023/03/18 16:55:56;;;;;;;3.07;1.47;;;;;;;;;;4981669;28;20571;-88
2023/03/18 16:59:01;;;;;;;3.27;1.97;;;;;;;;;;4981747;28;20194;-88
2023/03/18 17:02:29;;;;;;;3.47;1.70;;;;;;;;;;4992680;28;20193;-88
2023/03/18 17:05:33;;;;;;;5.57;1.80;;;;;;;;;;4981172;28;20221;-88
2023/03/18 17:08:38;;;;;;;5.37;2.70;;;;;;;;;;5003686;28;20182;-88
2023/03/18 17:11:43;;;;;;;4.80;2.03;;;;;;;;;;4980592;28;20221;-88
2023/03/18 17:14:56;;;;;;;2.90;1.57;;;;;;;;;;5003472;28;20221;-88
2023/03/18 17:18:00;;;;;;;3.27;1.63;;;;;;;;;;4981117;28;20189;-88
2023/03/18 17:21:05;;;;;;;3.13;1.70;;;;;;;;;;4992518;28;20177;-88
2023/03/18 17:24:09;;;;;;;1.60;1.33;;;;;;;;;;4992124;28;20213;-88
2023/03/18 17:27:20;;;;;;;3.73;1.63;;;;;;;;;;4992290;28;20181;-88
2023/03/18 17:30:32;;;;;;;3.53;1.73;;;;;;;;;;4981287;28;20186;-88
2023/03/18 17:33:39;;;;;;;3.23;1.63;;;;;;;;;;4981204;28;20166;-88
2023/03/18 17:36:43;;;;;;;28.17;2.60;;;;;;;;;;4980965;28;20190;-88
2023/03/18 17:39:47;;;;;;;3.83;1.70;;;;;;;;;;4991874;28;20182;-88
2023/03/18 17:42:52;;;;;;;2.97;1.33;;;;;;;;;;4980951;28;20622;-88
2023/03/18 17:45:57;;;;;;;3.53;1.33;;;;;;;;;;4991839;28;20216;-87
2023/03/18 17:49:10;;;;;;;4.77;1.50;;;;;;;;;;4980991;28;20185;-88
2023/03/18 17:52:20;;;;;;;2.93;1.50;;;;;;;;;;5045227;23;20209;-80
2023/03/18 17:55:25;;;;;;;3.57;1.50;;;;;;;;;;4972552;28;20555;-80
2023/03/18 17:58:32;;;;;;;3.03;1.50;;;;;;;;;;4984627;28;20186;-80
2023/03/18 18:01:36;;;;;;;2.97;1.53;;;;;;;;;;4972933;28;20194;-80
2023/03/18 18:04:41;;;;;;;2.97;1.70;;;;;;;;;;4964325;28;20198;-80
2023/03/18 18:07:45;;;;;;;6.60;2.13;;;;;;;;;;4974676;28;20198;-80
2023/03/18 18:10:51;;;;;;;3.73;1.70;;;;;;;;;;4952076;28;20194;-80
2023/03/18 18:14:00;;;;;;;4.47;2.10;;;;;;;;;;4963468;28;20207;-80
2023/03/18 18:17:14;;;;;;;3.00;1.90;;;;;;;;;;4974281;28;20545;-80
2023/03/18 18:20:20;;;;;;;3.00;2.10;;;;;;;;;;4974444;28;20186;-81
2023/03/18 18:23:28;;;;;;;6.30;2.17;;;;;;;;;;4951433;28;20219;-80
2023/03/18 18:26:32;;;;;;;3.03;1.63;;;;;;;;;;4951917;28;20183;-82
2023/03/18 18:29:36;;;;;;;3.33;1.80;;;;;;;;;;4974381;28;20187;-80
2023/03/18 18:32:40;;;;;;;4.23;1.77;;;;;;;;;;4973804;28;20230;-81
2023/03/18 18:35:45;;;;;;;3.27;1.90;;;;;;;;;;4962936;28;20182;-81
2023/03/18 18:38:49;;;;;;;4.60;2.10;;;;;;;;;;4962941;28;20206;-80
2023/03/18 18:41:54;;;;;;;4.53;1.77;;;;;;;;;;4962948;28;20195;-81
2023/03/18 18:44:58;;;;;;;4.67;1.90;;;;;;;;;;4974986;28;20521;-80
2023/03/18 18:48:11;;;;;;;3.33;2.00;;;;;;;;;;4974000;28;20183;-81
2023/03/18 18:51:17;;;;;;;2.90;2.30;;;;;;;;;;4974097;28;20183;-80
2023/03/18 18:54:23;;;;;;;3.63;2.30;;;;;;;;;;4962673;28;20230;-80